KMOP/MOP METAR and TAF weather

Enter ICAO airport designator
Station Type Date Time Source
KMOP METAR 2023/01/30 10:35 UTC NOAA

KMOP 301035Z AUTO 27005KT 10SM OVC049 M07/M09 A3023 RMK AO2 T10681095


Station Type Date Time Source
KMOP Decoded METAR 2023/01/30 10:35 UTC NOAA

Mount Pleasant, Mount Pleasant Municipal Airport, MI, United States (KMOP) 43-37N 84-44W
Jan 30, 2023 - 05:35 AM EST / 2023.01.30 1035 UTC
Wind: from the W (270 degrees) at 6 MPH (5 KT):0
Visibility: 10 mile(s):0
Sky conditions: overcast
Temperature: 19.8 F (-6.8 C)
Windchill: 12 F (-11 C):1
Dew Point: 14.9 F (-9.5 C)
Relative Humidity: 81%
Pressure (altimeter): 30.23 in. Hg (1023 hPa)
ob: KMOP 301035Z AUTO 27005KT 10SM OVC049 M07/M09 A3023 RMK AO2 T10681095
cycle: 10

Station Type Date Time Source
KMOP TAF UTC NOAA

Error!

Example: see airport list